Hlavní strana
METAR-TAF:

METAR-TAF

Letiště :

Ingalls Field

Hot Springs, Virginie, Spojené státy americké

zeměpisná šířka: 37-57N, zeměpisná délka: 079-50W, výška: 1156 m

Aktuální stav počasí

Zpráva byla vytvořena před 43 minutami, v 04:15 UTC
Jižní vítr 9 kt
Teplota 21°C
Vlhkost vzduchu 69%
Tlak 1023 hPa
Viditelnost: 16.1 km

METAR: KHSP 060415Z AUTO 19009KT 10SM 21/15 A3021 RMK AO2 LTG DSNT S AND SW T02110153

Čas: 00:58 (04:58 UTC)


TAF: chybějící

Stav a předpovědi počasí z více než 4 000 letišť (zprávy METAR a TAF).

Červené a žluté tečky na mapě představují dostupné meteorologické stanice.

Když kurzor umístíte na tečku, zobrazí se název stanice.

Pak kliknutím zobrazíte stav a předpověď počasí.

Chcete-li změnit mapu, kliknutím na zelené tlačítko se znaménkem +mapu přiblížíte, kliknutím na zelené tlačítko se znaménkem – mapu oddálíte a kliknutím na zelené šipky přejdete na sousední mapy.


METAR-TAF: